サマルカンド の空港の天気 - METARとTAF

サマルカンド空港 ( UTSS / SKD ) - ウズベキスタン サマルカンド
飛行場実況気象(Metar)
観測時間07/20 16:00 UZT (07/20 11:00 UTC)
風向・風速北北東 6m/s
視程10km以上
天気現象
なし
気温40℃
湿度15%
気圧1008hPa
METARUTSS 201100Z 02012KT 340V050 9999 NSC 40/08 Q1008 R09/CLRD70 NOSIG
過去の天気等 Google飛行場航空写真 Wunderground天気予報

過去48時間のMETAR

飛行場予報(TAF)
発表時間: 7/20 10:00 UZT (7/20 05:00 UTC)
予報対象時間: 20日11時 UZT ~ 21日11時 UZT
風向・風速東南東 5m/s 瞬間風速 10m/s
視程10km以上
なし
20日11時 UZT ~ 20日17時 UZT に一時的に
風向・風速東北東 8m/s 瞬間風速 13m/s
TAF UTSS 200500Z 2006/2106 12010G20KT 9999 NSC TX40/2010Z
TEMPO 2006/2012 06016G26KT